sensor_id;sensor_type;location;lat;lon;timestamp;P1;durP1;ratioP1;P2;durP2;ratioP2
14241;SDS011;7205;50.864;12.766;2022-10-16T00:00:35;1.37;;;1.30;;
14241;SDS011;7205;50.864;12.766;2022-10-16T00:03:03;1.43;;;0.70;;
14241;SDS011;7205;50.864;12.766;2022-10-16T00:05:31;0.70;;;0.70;;
14241;SDS011;7205;50.864;12.766;2022-10-16T00:08:00;0.47;;;0.47;;
14241;SDS011;7205;50.864;12.766;2022-10-16T00:10:28;1.17;;;0.70;;
14241;SDS011;7205;50.864;12.766;2022-10-16T00:12:55;0.43;;;0.43;;
14241;SDS011;7205;50.864;12.766;2022-10-16T00:15:22;1.17;;;0.40;;
14241;SDS011;7205;50.864;12.766;2022-10-16T00:17:49;0.70;;;0.30;;
14241;SDS011;7205;50.864;12.766;2022-10-16T00:20:15;1.00;;;0.60;;
14241;SDS011;7205;50.864;12.766;2022-10-16T00:22:42;0.20;;;0.20;;
14241;SDS011;7205;50.864;12.766;2022-10-16T00:25:11;0.27;;;0.17;;
14241;SDS011;7205;50.864;12.766;2022-10-16T00:27:38;0.43;;;0.40;;
14241;SDS011;7205;50.864;12.766;2022-10-16T00:30:05;0.40;;;0.40;;
14241;SDS011;7205;50.864;12.766;2022-10-16T00:32:33;0.40;;;0.40;;
14241;SDS011;7205;50.864;12.766;2022-10-16T00:35:00;0.20;;;0.20;;
14241;SDS011;7205;50.864;12.766;2022-10-16T00:37:29;0.30;;;0.30;;
14241;SDS011;7205;50.864;12.766;2022-10-16T00:39:55;0.37;;;0.37;;
14241;SDS011;7205;50.864;12.766;2022-10-16T00:42:24;0.47;;;0.30;;
14241;SDS011;7205;50.864;12.766;2022-10-16T00:44:51;0.20;;;0.20;;
14241;SDS011;7205;50.864;12.766;2022-10-16T00:47:21;0.30;;;0.30;;
14241;SDS011;7205;50.864;12.766;2022-10-16T00:49:53;0.67;;;0.20;;
14241;SDS011;7205;50.864;12.766;2022-10-16T00:52:24;0.20;;;0.20;;
14241;SDS011;7205;50.864;12.766;2022-10-16T00:54:51;0.37;;;0.37;;
14241;SDS011;7205;50.864;12.766;2022-10-16T00:57:19;0.60;;;0.30;;
14241;SDS011;7205;50.864;12.766;2022-10-16T00:59:48;0.53;;;0.30;;
14241;SDS011;7205;50.864;12.766;2022-10-16T01:02:16;0.27;;;0.27;;
14241;SDS011;7205;50.864;12.766;2022-10-16T01:04:44;1.70;;;0.30;;
14241;SDS011;7205;50.864;12.766;2022-10-16T01:07:14;0.30;;;0.30;;
14241;SDS011;7205;50.864;12.766;2022-10-16T01:09:53;2.20;;;0.40;;
14241;SDS011;7205;50.864;12.766;2022-10-16T01:12:30;0.20;;;0.20;;
14241;SDS011;7205;50.864;12.766;2022-10-16T01:15:08;0.20;;;0.20;;
14241;SDS011;7205;50.864;12.766;2022-10-16T01:17:39;0.47;;;0.43;;
14241;SDS011;7205;50.864;12.766;2022-10-16T01:20:13;0.90;;;0.40;;
14241;SDS011;7205;50.864;12.766;2022-10-16T01:22:55;0.43;;;0.40;;
14241;SDS011;7205;50.864;12.766;2022-10-16T01:25:33;0.47;;;0.30;;
14241;SDS011;7205;50.864;12.766;2022-10-16T01:28:20;0.40;;;0.40;;
14241;SDS011;7205;50.864;12.766;2022-10-16T01:30:50;0.30;;;0.30;;
14241;SDS011;7205;50.864;12.766;2022-10-16T01:33:22;0.60;;;0.30;;
14241;SDS011;7205;50.864;12.766;2022-10-16T01:35:54;0.30;;;0.30;;
14241;SDS011;7205;50.864;12.766;2022-10-16T01:38:31;0.37;;;0.30;;
14241;SDS011;7205;50.864;12.766;2022-10-16T01:41:02;1.13;;;0.50;;
14241;SDS011;7205;50.864;12.766;2022-10-16T01:43:36;0.50;;;0.50;;
14241;SDS011;7205;50.864;12.766;2022-10-16T01:46:07;1.13;;;0.30;;
14241;SDS011;7205;50.864;12.766;2022-10-16T01:48:36;0.60;;;0.60;;
14241;SDS011;7205;50.864;12.766;2022-10-16T01:51:05;0.40;;;0.40;;
14241;SDS011;7205;50.864;12.766;2022-10-16T01:53:35;2.83;;;0.50;;
14241;SDS011;7205;50.864;12.766;2022-10-16T01:56:03;0.40;;;0.40;;
14241;SDS011;7205;50.864;12.766;2022-10-16T01:58:34;0.67;;;0.40;;
14241;SDS011;7205;50.864;12.766;2022-10-16T02:01:05;1.73;;;0.40;;
14241;SDS011;7205;50.864;12.766;2022-10-16T02:03:37;0.50;;;0.37;;
14241;SDS011;7205;50.864;12.766;2022-10-16T02:06:07;0.40;;;0.40;;
14241;SDS011;7205;50.864;12.766;2022-10-16T02:08:34;0.50;;;0.50;;
14241;SDS011;7205;50.864;12.766;2022-10-16T02:11:02;0.20;;;0.20;;
14241;SDS011;7205;50.864;12.766;2022-10-16T02:13:30;0.93;;;0.43;;
14241;SDS011;7205;50.864;12.766;2022-10-16T02:16:03;0.40;;;0.40;;
14241;SDS011;7205;50.864;12.766;2022-10-16T02:18:31;0.40;;;0.40;;
14241;SDS011;7205;50.864;12.766;2022-10-16T02:20:59;0.50;;;0.50;;
14241;SDS011;7205;50.864;12.766;2022-10-16T02:23:30;0.33;;;0.33;;
14241;SDS011;7205;50.864;12.766;2022-10-16T02:26:04;1.53;;;0.40;;
14241;SDS011;7205;50.864;12.766;2022-10-16T02:28:36;1.27;;;0.33;;
14241;SDS011;7205;50.864;12.766;2022-10-16T02:31:10;0.50;;;0.50;;
14241;SDS011;7205;50.864;12.766;2022-10-16T02:33:40;0.37;;;0.37;;
14241;SDS011;7205;50.864;12.766;2022-10-16T02:36:09;0.40;;;0.40;;
14241;SDS011;7205;50.864;12.766;2022-10-16T02:38:36;0.67;;;0.30;;
14241;SDS011;7205;50.864;12.766;2022-10-16T02:41:06;0.50;;;0.50;;
14241;SDS011;7205;50.864;12.766;2022-10-16T02:43:33;1.80;;;0.50;;
14241;SDS011;7205;50.864;12.766;2022-10-16T02:46:00;2.50;;;0.40;;
14241;SDS011;7205;50.864;12.766;2022-10-16T02:48:29;0.60;;;0.60;;
14241;SDS011;7205;50.864;12.766;2022-10-16T02:50:56;0.50;;;0.50;;
14241;SDS011;7205;50.864;12.766;2022-10-16T02:53:23;0.63;;;0.40;;
14241;SDS011;7205;50.864;12.766;2022-10-16T02:55:49;0.30;;;0.30;;
14241;SDS011;7205;50.864;12.766;2022-10-16T02:58:16;1.30;;;0.40;;
14241;SDS011;7205;50.864;12.766;2022-10-16T03:00:43;0.40;;;0.40;;
14241;SDS011;7205;50.864;12.766;2022-10-16T03:03:11;1.50;;;0.50;;
14241;SDS011;7205;50.864;12.766;2022-10-16T03:05:39;1.07;;;0.50;;
14241;SDS011;7205;50.864;12.766;2022-10-16T03:08:06;0.50;;;0.50;;
14241;SDS011;7205;50.864;12.766;2022-10-16T03:10:32;0.50;;;0.50;;
14241;SDS011;7205;50.864;12.766;2022-10-16T03:12:59;0.47;;;0.47;;
14241;SDS011;7205;50.864;12.766;2022-10-16T03:15:26;0.73;;;0.40;;
14241;SDS011;7205;50.864;12.766;2022-10-16T03:17:53;2.43;;;0.50;;
14241;SDS011;7205;50.864;12.766;2022-10-16T03:20:20;0.53;;;0.50;;
14241;SDS011;7205;50.864;12.766;2022-10-16T03:22:48;1.33;;;0.40;;
14241;SDS011;7205;50.864;12.766;2022-10-16T03:25:15;1.67;;;0.30;;
14241;SDS011;7205;50.864;12.766;2022-10-16T03:27:42;0.93;;;0.50;;
14241;SDS011;7205;50.864;12.766;2022-10-16T03:30:09;0.70;;;0.40;;
14241;SDS011;7205;50.864;12.766;2022-10-16T03:32:36;0.90;;;0.50;;
14241;SDS011;7205;50.864;12.766;2022-10-16T03:35:03;1.27;;;0.70;;
14241;SDS011;7205;50.864;12.766;2022-10-16T03:37:31;0.43;;;0.43;;
14241;SDS011;7205;50.864;12.766;2022-10-16T03:39:59;0.70;;;0.70;;
14241;SDS011;7205;50.864;12.766;2022-10-16T03:42:26;1.33;;;0.43;;
14241;SDS011;7205;50.864;12.766;2022-10-16T03:44:52;1.43;;;0.30;;
14241;SDS011;7205;50.864;12.766;2022-10-16T03:47:19;0.50;;;0.30;;
14241;SDS011;7205;50.864;12.766;2022-10-16T03:49:48;0.30;;;0.30;;
14241;SDS011;7205;50.864;12.766;2022-10-16T03:52:15;1.90;;;0.40;;
14241;SDS011;7205;50.864;12.766;2022-10-16T03:54:42;0.73;;;0.40;;
14241;SDS011;7205;50.864;12.766;2022-10-16T03:57:10;0.40;;;0.33;;
14241;SDS011;7205;50.864;12.766;2022-10-16T03:59:37;0.30;;;0.30;;
14241;SDS011;7205;50.864;12.766;2022-10-16T04:02:04;0.30;;;0.30;;
14241;SDS011;7205;50.864;12.766;2022-10-16T04:04:30;0.40;;;0.40;;
14241;SDS011;7205;50.864;12.766;2022-10-16T04:06:57;0.43;;;0.43;;
14241;SDS011;7205;50.864;12.766;2022-10-16T04:09:24;0.30;;;0.30;;
14241;SDS011;7205;50.864;12.766;2022-10-16T04:11:51;0.83;;;0.40;;
14241;SDS011;7205;50.864;12.766;2022-10-16T04:14:19;0.30;;;0.30;;
14241;SDS011;7205;50.864;12.766;2022-10-16T04:16:46;0.30;;;0.30;;
14241;SDS011;7205;50.864;12.766;2022-10-16T04:19:12;0.37;;;0.37;;
14241;SDS011;7205;50.864;12.766;2022-10-16T04:21:39;0.37;;;0.30;;
14241;SDS011;7205;50.864;12.766;2022-10-16T04:24:06;1.57;;;0.50;;
14241;SDS011;7205;50.864;12.766;2022-10-16T04:26:33;1.70;;;0.57;;
14241;SDS011;7205;50.864;12.766;2022-10-16T04:29:00;0.50;;;0.40;;
14241;SDS011;7205;50.864;12.766;2022-10-16T04:31:28;0.63;;;0.30;;
14241;SDS011;7205;50.864;12.766;2022-10-16T04:33:55;2.13;;;0.83;;
14241;SDS011;7205;50.864;12.766;2022-10-16T04:36:21;2.20;;;0.50;;
14241;SDS011;7205;50.864;12.766;2022-10-16T04:38:48;0.30;;;0.30;;
14241;SDS011;7205;50.864;12.766;2022-10-16T04:41:15;0.80;;;0.30;;
14241;SDS011;7205;50.864;12.766;2022-10-16T04:43:42;0.73;;;0.40;;
14241;SDS011;7205;50.864;12.766;2022-10-16T04:46:08;0.60;;;0.37;;
14241;SDS011;7205;50.864;12.766;2022-10-16T04:48:37;0.97;;;0.20;;
14241;SDS011;7205;50.864;12.766;2022-10-16T04:51:04;1.33;;;0.20;;
14241;SDS011;7205;50.864;12.766;2022-10-16T04:53:31;1.40;;;0.30;;
14241;SDS011;7205;50.864;12.766;2022-10-16T04:55:58;0.20;;;0.20;;
14241;SDS011;7205;50.864;12.766;2022-10-16T04:58:25;0.20;;;0.20;;
14241;SDS011;7205;50.864;12.766;2022-10-16T05:00:52;0.67;;;0.50;;
14241;SDS011;7205;50.864;12.766;2022-10-16T05:03:19;0.20;;;0.20;;
14241;SDS011;7205;50.864;12.766;2022-10-16T05:05:47;0.30;;;0.30;;
14241;SDS011;7205;50.864;12.766;2022-10-16T05:08:14;1.13;;;0.20;;
14241;SDS011;7205;50.864;12.766;2022-10-16T05:10:42;3.10;;;0.30;;
14241;SDS011;7205;50.864;12.766;2022-10-16T05:13:10;0.30;;;0.30;;
14241;SDS011;7205;50.864;12.766;2022-10-16T05:15:38;0.40;;;0.20;;
14241;SDS011;7205;50.864;12.766;2022-10-16T05:18:05;0.30;;;0.30;;
14241;SDS011;7205;50.864;12.766;2022-10-16T05:20:31;1.33;;;0.30;;
14241;SDS011;7205;50.864;12.766;2022-10-16T05:23:00;0.13;;;0.13;;
14241;SDS011;7205;50.864;12.766;2022-10-16T05:25:27;0.40;;;0.40;;
14241;SDS011;7205;50.864;12.766;2022-10-16T05:27:53;0.20;;;0.20;;
14241;SDS011;7205;50.864;12.766;2022-10-16T05:30:20;0.70;;;0.30;;
14241;SDS011;7205;50.864;12.766;2022-10-16T05:32:47;0.50;;;0.50;;
14241;SDS011;7205;50.864;12.766;2022-10-16T05:35:15;0.30;;;0.30;;
14241;SDS011;7205;50.864;12.766;2022-10-16T05:37:43;0.30;;;0.30;;
14241;SDS011;7205;50.864;12.766;2022-10-16T05:40:12;0.70;;;0.47;;
14241;SDS011;7205;50.864;12.766;2022-10-16T05:42:40;0.67;;;0.37;;
14241;SDS011;7205;50.864;12.766;2022-10-16T05:45:08;0.40;;;0.40;;
14241;SDS011;7205;50.864;12.766;2022-10-16T05:47:36;0.53;;;0.53;;
14241;SDS011;7205;50.864;12.766;2022-10-16T05:50:03;4.43;;;0.37;;
14241;SDS011;7205;50.864;12.766;2022-10-16T05:52:30;0.40;;;0.40;;
14241;SDS011;7205;50.864;12.766;2022-10-16T05:54:57;0.70;;;0.60;;
14241;SDS011;7205;50.864;12.766;2022-10-16T05:57:25;1.67;;;1.57;;
14241;SDS011;7205;50.864;12.766;2022-10-16T05:59:52;0.80;;;0.80;;
14241;SDS011;7205;50.864;12.766;2022-10-16T06:02:19;1.47;;;0.97;;
14241;SDS011;7205;50.864;12.766;2022-10-16T06:04:46;1.53;;;1.43;;
14241;SDS011;7205;50.864;12.766;2022-10-16T06:07:13;0.77;;;0.77;;
14241;SDS011;7205;50.864;12.766;2022-10-16T06:09:39;0.50;;;0.40;;
14241;SDS011;7205;50.864;12.766;2022-10-16T06:12:06;0.70;;;0.70;;
14241;SDS011;7205;50.864;12.766;2022-10-16T06:14:34;2.93;;;1.17;;
14241;SDS011;7205;50.864;12.766;2022-10-16T06:17:01;0.70;;;0.70;;
14241;SDS011;7205;50.864;12.766;2022-10-16T06:19:28;1.47;;;1.37;;
14241;SDS011;7205;50.864;12.766;2022-10-16T06:21:55;2.07;;;1.97;;
14241;SDS011;7205;50.864;12.766;2022-10-16T06:24:23;1.53;;;1.47;;
14241;SDS011;7205;50.864;12.766;2022-10-16T06:26:49;1.60;;;1.50;;
14241;SDS011;7205;50.864;12.766;2022-10-16T06:29:16;1.90;;;1.80;;
14241;SDS011;7205;50.864;12.766;2022-10-16T06:31:45;0.70;;;0.70;;
14241;SDS011;7205;50.864;12.766;2022-10-16T06:34:11;1.73;;;0.57;;
14241;SDS011;7205;50.864;12.766;2022-10-16T06:36:38;2.80;;;2.47;;
14241;SDS011;7205;50.864;12.766;2022-10-16T06:39:06;5.67;;;5.27;;
14241;SDS011;7205;50.864;12.766;2022-10-16T06:41:33;4.10;;;3.80;;
14241;SDS011;7205;50.864;12.766;2022-10-16T06:44:13;2.73;;;2.33;;
14241;SDS011;7205;50.864;12.766;2022-10-16T06:46:40;3.43;;;3.10;;
14241;SDS011;7205;50.864;12.766;2022-10-16T06:49:09;3.57;;;3.17;;
14241;SDS011;7205;50.864;12.766;2022-10-16T06:51:35;2.27;;;2.17;;
14241;SDS011;7205;50.864;12.766;2022-10-16T06:54:06;2.57;;;2.47;;
14241;SDS011;7205;50.864;12.766;2022-10-16T06:56:33;2.40;;;1.73;;
14241;SDS011;7205;50.864;12.766;2022-10-16T06:59:00;1.67;;;0.80;;
14241;SDS011;7205;50.864;12.766;2022-10-16T07:01:27;0.57;;;0.40;;
14241;SDS011;7205;50.864;12.766;2022-10-16T07:03:55;1.40;;;0.57;;
14241;SDS011;7205;50.864;12.766;2022-10-16T07:06:24;4.23;;;3.77;;
14241;SDS011;7205;50.864;12.766;2022-10-16T07:08:52;2.40;;;2.27;;
14241;SDS011;7205;50.864;12.766;2022-10-16T07:11:20;0.57;;;0.57;;
14241;SDS011;7205;50.864;12.766;2022-10-16T07:13:48;1.00;;;1.00;;
14241;SDS011;7205;50.864;12.766;2022-10-16T07:16:16;0.80;;;0.80;;
14241;SDS011;7205;50.864;12.766;2022-10-16T07:18:45;3.20;;;2.93;;
14241;SDS011;7205;50.864;12.766;2022-10-16T07:21:14;5.60;;;5.10;;
14241;SDS011;7205;50.864;12.766;2022-10-16T07:23:44;5.27;;;3.50;;
14241;SDS011;7205;50.864;12.766;2022-10-16T07:26:11;3.30;;;3.10;;
14241;SDS011;7205;50.864;12.766;2022-10-16T07:28:38;3.33;;;3.03;;
14241;SDS011;7205;50.864;12.766;2022-10-16T07:31:06;1.83;;;1.73;;
14241;SDS011;7205;50.864;12.766;2022-10-16T07:33:36;4.13;;;3.70;;
14241;SDS011;7205;50.864;12.766;2022-10-16T07:36:04;0.70;;;0.70;;
14241;SDS011;7205;50.864;12.766;2022-10-16T07:38:32;0.80;;;0.80;;
14241;SDS011;7205;50.864;12.766;2022-10-16T07:41:01;2.67;;;2.47;;
14241;SDS011;7205;50.864;12.766;2022-10-16T07:43:29;4.00;;;3.50;;
14241;SDS011;7205;50.864;12.766;2022-10-16T07:45:56;4.40;;;4.10;;
14241;SDS011;7205;50.864;12.766;2022-10-16T07:48:23;1.43;;;1.00;;
14241;SDS011;7205;50.864;12.766;2022-10-16T07:50:56;2.40;;;1.67;;
14241;SDS011;7205;50.864;12.766;2022-10-16T07:53:23;3.97;;;3.67;;
14241;SDS011;7205;50.864;12.766;2022-10-16T07:55:50;2.57;;;2.30;;
14241;SDS011;7205;50.864;12.766;2022-10-16T07:58:18;1.70;;;1.37;;
14241;SDS011;7205;50.864;12.766;2022-10-16T08:00:45;1.57;;;1.47;;
14241;SDS011;7205;50.864;12.766;2022-10-16T08:03:12;2.77;;;1.90;;
14241;SDS011;7205;50.864;12.766;2022-10-16T08:05:38;3.33;;;1.17;;
14241;SDS011;7205;50.864;12.766;2022-10-16T08:08:05;0.97;;;0.93;;
14241;SDS011;7205;50.864;12.766;2022-10-16T08:10:32;1.50;;;0.90;;
14241;SDS011;7205;50.864;12.766;2022-10-16T08:12:59;0.80;;;0.80;;
14241;SDS011;7205;50.864;12.766;2022-10-16T08:15:27;3.40;;;1.60;;
14241;SDS011;7205;50.864;12.766;2022-10-16T08:17:54;0.53;;;0.53;;
14241;SDS011;7205;50.864;12.766;2022-10-16T08:20:23;0.60;;;0.60;;
14241;SDS011;7205;50.864;12.766;2022-10-16T08:22:49;2.67;;;1.20;;
14241;SDS011;7205;50.864;12.766;2022-10-16T08:25:16;10.60;;;9.50;;
14241;SDS011;7205;50.864;12.766;2022-10-16T08:27:43;8.40;;;5.77;;
14241;SDS011;7205;50.864;12.766;2022-10-16T08:30:11;3.43;;;3.23;;
14241;SDS011;7205;50.864;12.766;2022-10-16T08:32:39;2.90;;;1.23;;
14241;SDS011;7205;50.864;12.766;2022-10-16T08:35:07;4.37;;;3.97;;
14241;SDS011;7205;50.864;12.766;2022-10-16T08:37:35;3.50;;;3.30;;
14241;SDS011;7205;50.864;12.766;2022-10-16T08:40:02;3.23;;;3.03;;
14241;SDS011;7205;50.864;12.766;2022-10-16T08:42:40;2.63;;;2.43;;
14241;SDS011;7205;50.864;12.766;2022-10-16T08:45:21;4.20;;;2.20;;
14241;SDS011;7205;50.864;12.766;2022-10-16T08:48:10;6.00;;;1.63;;
14241;SDS011;7205;50.864;12.766;2022-10-16T08:50:46;1.17;;;1.07;;
14241;SDS011;7205;50.864;12.766;2022-10-16T08:53:16;2.10;;;0.90;;
14241;SDS011;7205;50.864;12.766;2022-10-16T08:55:49;0.87;;;0.80;;
14241;SDS011;7205;50.864;12.766;2022-10-16T08:58:18;2.50;;;1.00;;
14241;SDS011;7205;50.864;12.766;2022-10-16T09:00:47;1.10;;;1.10;;
14241;SDS011;7205;50.864;12.766;2022-10-16T09:03:24;1.33;;;1.33;;
14241;SDS011;7205;50.864;12.766;2022-10-16T09:06:12;1.90;;;1.80;;
14241;SDS011;7205;50.864;12.766;2022-10-16T09:08:51;2.43;;;2.33;;
14241;SDS011;7205;50.864;12.766;2022-10-16T09:11:31;3.43;;;3.13;;
14241;SDS011;7205;50.864;12.766;2022-10-16T09:14:13;2.43;;;2.27;;
14241;SDS011;7205;50.864;12.766;2022-10-16T09:17:04;1.47;;;1.37;;
14241;SDS011;7205;50.864;12.766;2022-10-16T09:19:44;1.33;;;1.20;;
14241;SDS011;7205;50.864;12.766;2022-10-16T09:22:16;1.03;;;0.87;;
14241;SDS011;7205;50.864;12.766;2022-10-16T09:24:44;1.17;;;1.07;;
14241;SDS011;7205;50.864;12.766;2022-10-16T09:27:11;1.63;;;0.63;;
14241;SDS011;7205;50.864;12.766;2022-10-16T09:29:40;0.40;;;0.40;;
14241;SDS011;7205;50.864;12.766;2022-10-16T09:32:10;3.13;;;2.93;;
14241;SDS011;7205;50.864;12.766;2022-10-16T09:34:40;2.37;;;2.17;;
14241;SDS011;7205;50.864;12.766;2022-10-16T09:37:14;1.57;;;1.47;;
14241;SDS011;7205;50.864;12.766;2022-10-16T09:39:45;4.47;;;2.67;;
14241;SDS011;7205;50.864;12.766;2022-10-16T09:42:14;1.73;;;1.63;;
14241;SDS011;7205;50.864;12.766;2022-10-16T09:44:42;0.43;;;0.43;;
14241;SDS011;7205;50.864;12.766;2022-10-16T09:47:15;2.00;;;1.20;;
14241;SDS011;7205;50.864;12.766;2022-10-16T09:49:53;0.80;;;0.70;;
14241;SDS011;7205;50.864;12.766;2022-10-16T09:52:21;0.97;;;0.63;;
14241;SDS011;7205;50.864;12.766;2022-10-16T09:54:50;0.80;;;0.60;;
14241;SDS011;7205;50.864;12.766;2022-10-16T09:57:19;0.33;;;0.33;;
14241;SDS011;7205;50.864;12.766;2022-10-16T09:59:47;2.67;;;0.90;;
14241;SDS011;7205;50.864;12.766;2022-10-16T10:02:16;0.83;;;0.70;;
14241;SDS011;7205;50.864;12.766;2022-10-16T10:04:47;0.83;;;0.60;;
14241;SDS011;7205;50.864;12.766;2022-10-16T10:07:18;1.00;;;0.90;;
14241;SDS011;7205;50.864;12.766;2022-10-16T10:09:50;3.07;;;2.40;;
14241;SDS011;7205;50.864;12.766;2022-10-16T10:12:18;2.20;;;0.90;;
14241;SDS011;7205;50.864;12.766;2022-10-16T10:14:48;1.90;;;1.20;;
14241;SDS011;7205;50.864;12.766;2022-10-16T10:17:21;2.77;;;2.60;;
14241;SDS011;7205;50.864;12.766;2022-10-16T10:19:52;1.93;;;1.83;;
14241;SDS011;7205;50.864;12.766;2022-10-16T10:22:23;1.10;;;1.10;;
14241;SDS011;7205;50.864;12.766;2022-10-16T10:24:57;1.13;;;0.90;;
14241;SDS011;7205;50.864;12.766;2022-10-16T10:27:59;2.40;;;1.07;;
14241;SDS011;7205;50.864;12.766;2022-10-16T10:30:55;1.37;;;0.83;;
14241;SDS011;7205;50.864;12.766;2022-10-16T10:33:28;0.60;;;0.60;;
14241;SDS011;7205;50.864;12.766;2022-10-16T10:36:07;0.70;;;0.70;;
14241;SDS011;7205;50.864;12.766;2022-10-16T10:38:49;1.00;;;1.00;;
14241;SDS011;7205;50.864;12.766;2022-10-16T10:41:27;1.53;;;1.30;;
14241;SDS011;7205;50.864;12.766;2022-10-16T10:44:19;0.93;;;0.80;;
14241;SDS011;7205;50.864;12.766;2022-10-16T10:46:57;2.10;;;1.90;;
14241;SDS011;7205;50.864;12.766;2022-10-16T10:49:36;3.73;;;2.60;;
14241;SDS011;7205;50.864;12.766;2022-10-16T10:52:13;5.23;;;2.20;;
14241;SDS011;7205;50.864;12.766;2022-10-16T10:55:21;2.87;;;0.80;;
14241;SDS011;7205;50.864;12.766;2022-10-16T10:57:56;6.33;;;1.10;;
14241;SDS011;7205;50.864;12.766;2022-10-16T11:00:40;3.13;;;1.70;;
14241;SDS011;7205;50.864;12.766;2022-10-16T11:03:19;1.80;;;1.70;;
14241;SDS011;7205;50.864;12.766;2022-10-16T11:06:00;1.33;;;0.80;;
14241;SDS011;7205;50.864;12.766;2022-10-16T11:08:33;1.50;;;0.50;;
14241;SDS011;7205;50.864;12.766;2022-10-16T11:11:05;1.13;;;1.13;;
14241;SDS011;7205;50.864;12.766;2022-10-16T11:13:36;0.80;;;0.80;;
14241;SDS011;7205;50.864;12.766;2022-10-16T11:16:10;3.90;;;1.10;;
14241;SDS011;7205;50.864;12.766;2022-10-16T11:18:45;0.87;;;0.77;;
14241;SDS011;7205;50.864;12.766;2022-10-16T11:21:17;0.80;;;0.60;;
14241;SDS011;7205;50.864;12.766;2022-10-16T11:23:48;1.13;;;0.60;;
14241;SDS011;7205;50.864;12.766;2022-10-16T11:26:23;3.30;;;1.17;;
14241;SDS011;7205;50.864;12.766;2022-10-16T11:28:53;0.30;;;0.30;;
14241;SDS011;7205;50.864;12.766;2022-10-16T11:31:23;1.17;;;0.93;;
14241;SDS011;7205;50.864;12.766;2022-10-16T11:33:59;1.30;;;1.30;;
14241;SDS011;7205;50.864;12.766;2022-10-16T11:36:33;0.70;;;0.60;;
14241;SDS011;7205;50.864;12.766;2022-10-16T11:39:08;1.90;;;0.50;;
14241;SDS011;7205;50.864;12.766;2022-10-16T11:41:45;0.90;;;0.90;;
14241;SDS011;7205;50.864;12.766;2022-10-16T11:44:18;1.80;;;0.63;;
14241;SDS011;7205;50.864;12.766;2022-10-16T11:46:58;0.43;;;0.43;;
14241;SDS011;7205;50.864;12.766;2022-10-16T11:49:33;0.57;;;0.57;;
14241;SDS011;7205;50.864;12.766;2022-10-16T11:52:05;1.70;;;0.70;;
14241;SDS011;7205;50.864;12.766;2022-10-16T11:54:39;1.03;;;0.40;;
14241;SDS011;7205;50.864;12.766;2022-10-16T11:57:14;1.20;;;0.53;;
14241;SDS011;7205;50.864;12.766;2022-10-16T11:59:45;1.03;;;0.50;;
14241;SDS011;7205;50.864;12.766;2022-10-16T12:02:28;0.80;;;0.60;;
14241;SDS011;7205;50.864;12.766;2022-10-16T12:05:03;0.95;;;0.40;;
14241;SDS011;7205;50.864;12.766;2022-10-16T12:07:41;0.50;;;0.50;;
14241;SDS011;7205;50.864;12.766;2022-10-16T12:10:18;0.40;;;0.40;;
14241;SDS011;7205;50.864;12.766;2022-10-16T12:12:49;0.55;;;0.47;;
14241;SDS011;7205;50.864;12.766;2022-10-16T12:15:21;0.60;;;0.60;;
14241;SDS011;7205;50.864;12.766;2022-10-16T12:17:50;1.02;;;0.50;;
14241;SDS011;7205;50.864;12.766;2022-10-16T12:20:22;1.55;;;0.40;;
14241;SDS011;7205;50.864;12.766;2022-10-16T12:22:56;0.30;;;0.30;;
14241;SDS011;7205;50.864;12.766;2022-10-16T12:25:25;0.97;;;0.40;;
14241;SDS011;7205;50.864;12.766;2022-10-16T12:27:58;0.40;;;0.40;;
14241;SDS011;7205;50.864;12.766;2022-10-16T12:30:27;0.60;;;0.60;;
14241;SDS011;7205;50.864;12.766;2022-10-16T12:32:57;0.40;;;0.40;;
14241;SDS011;7205;50.864;12.766;2022-10-16T12:35:27;0.20;;;0.20;;
14241;SDS011;7205;50.864;12.766;2022-10-16T12:38:04;1.00;;;0.90;;
14241;SDS011;7205;50.864;12.766;2022-10-16T12:40:33;0.50;;;0.50;;
14241;SDS011;7205;50.864;12.766;2022-10-16T12:43:22;0.50;;;0.50;;
14241;SDS011;7205;50.864;12.766;2022-10-16T12:45:59;0.40;;;0.40;;
14241;SDS011;7205;50.864;12.766;2022-10-16T12:48:30;0.40;;;0.40;;
14241;SDS011;7205;50.864;12.766;2022-10-16T12:50:57;1.70;;;0.40;;
14241;SDS011;7205;50.864;12.766;2022-10-16T12:53:36;0.70;;;0.50;;
14241;SDS011;7205;50.864;12.766;2022-10-16T12:56:05;2.60;;;0.70;;
14241;SDS011;7205;50.864;12.766;2022-10-16T12:58:45;1.20;;;0.73;;
14241;SDS011;7205;50.864;12.766;2022-10-16T13:01:23;0.70;;;0.70;;
14241;SDS011;7205;50.864;12.766;2022-10-16T13:04:02;1.80;;;0.60;;
14241;SDS011;7205;50.864;12.766;2022-10-16T13:06:44;1.73;;;0.50;;
14241;SDS011;7205;50.864;12.766;2022-10-16T13:09:25;0.60;;;0.57;;
14241;SDS011;7205;50.864;12.766;2022-10-16T13:12:06;0.60;;;0.47;;
14241;SDS011;7205;50.864;12.766;2022-10-16T13:14:49;0.87;;;0.80;;
14241;SDS011;7205;50.864;12.766;2022-10-16T13:17:30;0.50;;;0.50;;
14241;SDS011;7205;50.864;12.766;2022-10-16T13:20:06;1.17;;;0.50;;
14241;SDS011;7205;50.864;12.766;2022-10-16T13:22:45;0.40;;;0.40;;
14241;SDS011;7205;50.864;12.766;2022-10-16T13:25:21;0.60;;;0.43;;
14241;SDS011;7205;50.864;12.766;2022-10-16T13:27:54;0.97;;;0.63;;
14241;SDS011;7205;50.864;12.766;2022-10-16T13:30:25;1.13;;;0.50;;
14241;SDS011;7205;50.864;12.766;2022-10-16T13:32:58;1.57;;;0.40;;
14241;SDS011;7205;50.864;12.766;2022-10-16T13:35:30;1.40;;;0.40;;
14241;SDS011;7205;50.864;12.766;2022-10-16T13:38:36;2.47;;;0.50;;
14241;SDS011;7205;50.864;12.766;2022-10-16T13:41:13;0.40;;;0.40;;
14241;SDS011;7205;50.864;12.766;2022-10-16T13:43:42;0.83;;;0.60;;
14241;SDS011;7205;50.864;12.766;2022-10-16T13:46:13;0.63;;;0.50;;
14241;SDS011;7205;50.864;12.766;2022-10-16T13:48:42;0.40;;;0.40;;
14241;SDS011;7205;50.864;12.766;2022-10-16T13:51:12;0.50;;;0.50;;
14241;SDS011;7205;50.864;12.766;2022-10-16T13:53:40;2.07;;;0.50;;
14241;SDS011;7205;50.864;12.766;2022-10-16T13:56:09;0.50;;;0.50;;
14241;SDS011;7205;50.864;12.766;2022-10-16T13:58:37;1.13;;;0.60;;
14241;SDS011;7205;50.864;12.766;2022-10-16T14:01:05;1.23;;;0.50;;
14241;SDS011;7205;50.864;12.766;2022-10-16T14:03:41;0.40;;;0.40;;
14241;SDS011;7205;50.864;12.766;2022-10-16T14:06:11;0.57;;;0.57;;
14241;SDS011;7205;50.864;12.766;2022-10-16T14:08:41;1.00;;;0.40;;
14241;SDS011;7205;50.864;12.766;2022-10-16T14:11:11;0.57;;;0.57;;
14241;SDS011;7205;50.864;12.766;2022-10-16T14:13:42;2.93;;;2.57;;
14241;SDS011;7205;50.864;12.766;2022-10-16T14:16:15;2.13;;;2.03;;
14241;SDS011;7205;50.864;12.766;2022-10-16T14:18:46;6.10;;;5.60;;
14241;SDS011;7205;50.864;12.766;2022-10-16T14:21:21;1.60;;;1.50;;
14241;SDS011;7205;50.864;12.766;2022-10-16T14:23:49;3.03;;;2.83;;
14241;SDS011;7205;50.864;12.766;2022-10-16T14:26:18;1.60;;;1.37;;
14241;SDS011;7205;50.864;12.766;2022-10-16T14:28:47;2.27;;;2.17;;
14241;SDS011;7205;50.864;12.766;2022-10-16T14:31:28;0.63;;;0.60;;
14241;SDS011;7205;50.864;12.766;2022-10-16T14:33:58;1.13;;;1.03;;
14241;SDS011;7205;50.864;12.766;2022-10-16T14:36:26;0.80;;;0.80;;
14241;SDS011;7205;50.864;12.766;2022-10-16T14:38:58;1.03;;;0.60;;
14241;SDS011;7205;50.864;12.766;2022-10-16T14:41:27;1.13;;;0.77;;
14241;SDS011;7205;50.864;12.766;2022-10-16T14:43:55;1.53;;;0.80;;
14241;SDS011;7205;50.864;12.766;2022-10-16T14:46:28;0.60;;;0.60;;
14241;SDS011;7205;50.864;12.766;2022-10-16T14:49:01;0.80;;;0.80;;
14241;SDS011;7205;50.864;12.766;2022-10-16T14:51:31;0.40;;;0.40;;
14241;SDS011;7205;50.864;12.766;2022-10-16T14:53:58;1.80;;;0.70;;
14241;SDS011;7205;50.864;12.766;2022-10-16T14:56:25;1.43;;;0.57;;
14241;SDS011;7205;50.864;12.766;2022-10-16T14:58:56;0.50;;;0.50;;
14241;SDS011;7205;50.864;12.766;2022-10-16T15:01:23;0.90;;;0.57;;
14241;SDS011;7205;50.864;12.766;2022-10-16T15:03:52;0.40;;;0.37;;
14241;SDS011;7205;50.864;12.766;2022-10-16T15:06:22;1.37;;;0.40;;
14241;SDS011;7205;50.864;12.766;2022-10-16T15:08:49;0.50;;;0.43;;